Current Weather

Siirt

Siirt, Turkey (LTCL)

Report from: Tuesday, August 16, 2022 6:50 AM UTC
Current time: Tuesday, August 16, 2022 7:40 AM UTC

Nearby weather
Weather history
Weather forecast

Temperature33.0°C (91.4°F)
Heat index31.0°C (87.9°F)
Dew point8.0°C (46.4°F)
Winds 1 kts (0.5 m/s, 1.2 mph) Vrb
Winds variableWinds variable
Clouds Sky clear
Altimeter29.83 in.Hg (1010 mB)
Relative humidity21 %
Density altitude2,316 ft. (706 m)
Remarks Ceiling and visibility OK
Flight conditions Visual Meteorological Conditions
Raw dataLTCL 160650Z VRB01KT CAVOK 33/08 Q1010
An error has occurred. This application may no longer respond until reloaded. Reload 🗙